Time;durP1;ratioP1;P1;durP2;ratioP2;P2;SDS_P1;SDS_P2;PMS_P1;PMS_P2;Temp;Humidity;BMP_temperature;BMP_pressure;BME280_temperature;BME280_humidity;BME280_pressure;Samples;Min_cycle;Max_cycle;Signal;HPM_P1;HPM_P2
2021/07/26 00:00:50;;;;;;;19.02;12.93;;;19.70;99.90;;;;;;5115588;27;20059;-73
2021/07/26 00:03:16;;;;;;;22.45;13.60;;;19.70;99.90;;;;;;5115784;28;20069;-72
2021/07/26 00:05:42;;;;;;;21.45;13.48;;;19.70;99.90;;;;;;5115651;28;20096;-73
2021/07/26 00:08:08;;;;;;;24.77;14.65;;;19.70;99.90;;;;;;5116378;28;20040;-72
2021/07/26 00:10:35;;;;;;;24.05;13.57;;;19.70;99.90;;;;;;5115414;28;20116;-72
2021/07/26 00:13:01;;;;;;;23.02;13.55;;;19.60;99.90;;;;;;5114682;28;20035;-72
2021/07/26 00:15:29;;;;;;;18.38;12.98;;;19.70;99.90;;;;;;5115526;28;20427;-72
2021/07/26 00:17:55;;;;;;;18.15;12.73;;;19.70;99.90;;;;;;5115568;28;20038;-72
2021/07/26 00:20:22;;;;;;;22.20;12.70;;;19.70;99.90;;;;;;5114096;28;20036;-72
2021/07/26 00:22:50;;;;;;;18.48;14.18;;;19.60;99.90;;;;;;5115444;28;20043;-72
2021/07/26 00:25:16;;;;;;;19.98;13.05;;;19.60;99.90;;;;;;5115443;27;20479;-72
2021/07/26 00:27:43;;;;;;;19.98;13.02;;;19.60;99.90;;;;;;5115580;28;20033;-72
2021/07/26 00:30:09;;;;;;;20.85;13.40;;;19.60;99.90;;;;;;5114780;28;20031;-72
2021/07/26 00:32:34;;;;;;;22.58;13.02;;;19.60;99.90;;;;;;5115494;28;20061;-73
2021/07/26 00:35:00;;;;;;;22.25;13.93;;;19.60;99.90;;;;;;5115416;28;20418;-73
2021/07/26 00:37:27;;;;;;;25.80;14.82;;;19.60;99.90;;;;;;5115989;28;20472;-73
2021/07/26 00:39:53;;;;;;;24.23;12.95;;;19.60;99.90;;;;;;5114743;28;20036;-73
2021/07/26 00:42:20;;;;;;;17.98;13.25;;;19.60;99.90;;;;;;5115113;28;20043;-73
2021/07/26 00:44:46;;;;;;;19.90;14.80;;;19.50;99.90;;;;;;5114981;28;20088;-73
2021/07/26 00:47:12;;;;;;;20.15;13.57;;;19.60;99.90;;;;;;5115381;28;20032;-71
2021/07/26 00:49:38;;;;;;;19.35;13.43;;;19.50;99.90;;;;;;5114577;28;20039;-70
2021/07/26 00:52:05;;;;;;;18.73;12.82;;;19.50;99.90;;;;;;5114832;28;20075;-70
2021/07/26 00:54:36;;;;;;;17.75;12.35;;;19.50;99.90;;;;;;5115319;28;20040;-72
2021/07/26 00:57:04;;;;;;;21.23;12.32;;;19.50;99.90;;;;;;5115240;28;20066;-72
2021/07/26 00:59:30;;;;;;;18.90;12.60;;;19.40;99.90;;;;;;5114319;28;20071;-72
2021/07/26 01:01:57;;;;;;;21.58;12.90;;;19.40;99.90;;;;;;5114494;28;20044;-72
2021/07/26 01:04:23;;;;;;;18.10;13.88;;;19.40;99.90;;;;;;5114123;28;20031;-72
2021/07/26 01:06:49;;;;;;;22.13;15.35;;;19.30;99.90;;;;;;5114220;28;20092;-73
2021/07/26 01:09:15;;;;;;;28.95;16.38;;;19.30;99.90;;;;;;5114450;28;20053;-73
2021/07/26 01:11:42;;;;;;;20.90;16.45;;;19.30;99.90;;;;;;5113572;28;20050;-72
2021/07/26 01:14:08;;;;;;;26.80;18.63;;;19.30;99.90;;;;;;5114548;28;20035;-72
2021/07/26 01:16:34;;;;;;;23.52;16.38;;;19.30;99.90;;;;;;5114337;28;20394;-72
2021/07/26 01:19:01;;;;;;;24.25;17.77;;;19.20;99.90;;;;;;5113996;28;20114;-72
2021/07/26 01:21:28;;;;;;;28.38;17.27;;;19.20;99.90;;;;;;5114426;28;20064;-73
2021/07/26 01:23:54;;;;;;;26.42;19.48;;;19.20;99.90;;;;;;5114483;28;20067;-73
2021/07/26 01:26:22;;;;;;;26.92;17.80;;;19.20;99.90;;;;;;5114582;28;20039;-73
2021/07/26 01:28:51;;;;;;;27.23;19.17;;;19.20;99.90;;;;;;5114045;28;20114;-72
2021/07/26 01:31:17;;;;;;;26.70;16.63;;;19.20;99.90;;;;;;5114288;28;20472;-72
2021/07/26 01:33:44;;;;;;;23.73;15.32;;;19.20;99.90;;;;;;5114677;28;20161;-73
2021/07/26 01:36:11;;;;;;;20.80;14.27;;;19.10;99.90;;;;;;5114058;28;20039;-73
2021/07/26 01:38:37;;;;;;;29.55;17.13;;;19.00;99.90;;;;;;5114163;28;20031;-72
2021/07/26 01:41:08;;;;;;;26.83;17.42;;;19.00;99.90;;;;;;5114413;28;20042;-72
2021/07/26 01:43:37;;;;;;;33.50;18.38;;;19.00;99.90;;;;;;5114435;28;20059;-72
2021/07/26 01:46:32;;;;;;;31.38;18.77;;;18.90;99.90;;;;;;5114543;28;20038;-71
2021/07/26 01:49:15;;;;;;;24.95;18.02;;;18.90;99.90;;;;;;5114068;28;20483;-72
2021/07/26 01:51:43;;;;;;;29.10;19.15;;;18.80;99.90;;;;;;5113990;28;20044;-73
2021/07/26 01:54:11;;;;;;;31.73;20.88;;;18.80;99.90;;;;;;5114414;28;20047;-72
2021/07/26 01:56:36;;;;;;;28.20;20.42;;;18.80;99.90;;;;;;5113662;28;20031;-72
2021/07/26 01:59:03;;;;;;;24.30;18.58;;;18.80;99.90;;;;;;5113622;28;20537;-72
2021/07/26 02:01:29;;;;;;;26.40;19.45;;;18.70;99.90;;;;;;5113900;28;20032;-72
2021/07/26 02:03:58;;;;;;;27.33;20.55;;;18.70;99.90;;;;;;5113756;28;20093;-72
2021/07/26 02:06:24;;;;;;;31.55;20.42;;;18.70;99.90;;;;;;5114083;28;20064;-72
2021/07/26 02:08:50;;;;;;;32.65;21.33;;;18.70;99.90;;;;;;5113865;28;20040;-72
2021/07/26 02:11:15;;;;;;;28.75;20.40;;;18.70;99.90;;;;;;5113770;28;20028;-72
2021/07/26 02:13:41;;;;;;;28.33;20.25;;;18.70;99.90;;;;;;5113663;28;20031;-72
2021/07/26 02:16:11;;;;;;;26.17;20.35;;;18.70;99.90;;;;;;5113636;28;20044;-73
2021/07/26 02:18:37;;;;;;;25.70;18.73;;;18.60;99.90;;;;;;5115786;28;20042;-72
2021/07/26 02:21:03;;;;;;;24.90;19.30;;;18.60;99.90;;;;;;5117712;28;20039;-72
2021/07/26 02:23:29;;;;;;;26.05;18.58;;;18.60;99.90;;;;;;5117679;28;20039;-72
2021/07/26 02:25:55;;;;;;;30.08;18.40;;;18.60;99.90;;;;;;5118128;28;20032;-72
2021/07/26 02:28:21;;;;;;;23.58;17.98;;;18.50;99.90;;;;;;5117742;28;20433;-72
2021/07/26 02:30:46;;;;;;;25.75;18.95;;;18.50;99.90;;;;;;5117220;28;20058;-72
2021/07/26 02:33:13;;;;;;;21.15;17.27;;;18.50;99.90;;;;;;5118291;28;20036;-72
2021/07/26 02:35:38;;;;;;;20.33;15.05;;;18.40;99.90;;;;;;5118161;28;20049;-72
2021/07/26 02:38:04;;;;;;;17.55;13.48;;;18.40;99.90;;;;;;5117539;28;20040;-73
2021/07/26 02:40:30;;;;;;;17.13;13.40;;;18.30;99.90;;;;;;5117170;27;20043;-72
2021/07/26 02:42:56;;;;;;;19.52;16.58;;;18.40;99.90;;;;;;5117391;28;20035;-72
2021/07/26 02:45:26;;;;;;;26.92;17.20;;;18.40;99.90;;;;;;5117235;28;20069;-72
2021/07/26 02:47:52;;;;;;;24.25;17.58;;;18.30;99.90;;;;;;5117551;28;20042;-72
2021/07/26 02:50:19;;;;;;;17.92;15.35;;;18.20;99.90;;;;;;5116743;28;20032;-72
2021/07/26 02:52:45;;;;;;;19.73;15.20;;;18.20;99.90;;;;;;5117903;28;20122;-72
2021/07/26 02:55:12;;;;;;;21.10;17.20;;;18.20;99.90;;;;;;5117179;28;20040;-72
2021/07/26 02:57:37;;;;;;;20.25;16.58;;;18.20;99.90;;;;;;5117128;28;20492;-72
2021/07/26 03:00:05;;;;;;;21.60;16.67;;;18.20;99.90;;;;;;5117194;28;20084;-72
2021/07/26 03:02:32;;;;;;;19.73;17.42;;;18.20;99.90;;;;;;5117329;28;20130;-72
2021/07/26 03:04:58;;;;;;;28.05;18.83;;;18.20;99.90;;;;;;5117287;28;20467;-72
2021/07/26 03:07:24;;;;;;;23.38;17.08;;;18.10;99.90;;;;;;5116811;28;20039;-72
2021/07/26 03:09:50;;;;;;;15.95;13.85;;;18.10;99.90;;;;;;5116662;28;20039;-72
2021/07/26 03:12:15;;;;;;;16.95;12.80;;;18.00;99.90;;;;;;5116944;28;20438;-72
2021/07/26 03:14:41;;;;;;;13.80;12.25;;;18.00;99.90;;;;;;5116895;28;20039;-72
2021/07/26 03:17:07;;;;;;;15.73;14.05;;;18.00;99.90;;;;;;5116702;28;20072;-72
2021/07/26 03:19:33;;;;;;;18.63;15.45;;;18.00;99.90;;;;;;5116551;28;20036;-72
2021/07/26 03:22:41;;;;;;;18.73;16.58;;;17.90;99.90;;;;;;5116343;27;20487;-72
2021/07/26 03:25:08;;;;;;;19.55;16.58;;;17.90;99.90;;;;;;5116998;28;20107;-72
2021/07/26 03:27:33;;;;;;;19.67;16.30;;;17.90;99.90;;;;;;5116564;28;20043;-72
2021/07/26 03:29:59;;;;;;;20.20;17.77;;;17.90;99.90;;;;;;5115993;28;20044;-72
2021/07/26 03:32:25;;;;;;;26.65;21.70;;;17.90;99.90;;;;;;5116957;28;20044;-72
2021/07/26 03:34:50;;;;;;;22.77;20.13;;;18.00;99.90;;;;;;5116405;28;20040;-72
2021/07/26 03:37:16;;;;;;;29.55;23.17;;;18.00;99.90;;;;;;5116448;27;20467;-72
2021/07/26 03:39:42;;;;;;;27.60;23.13;;;18.00;99.90;;;;;;5116431;28;20429;-72
2021/07/26 03:42:07;;;;;;;28.67;25.10;;;18.00;99.90;;;;;;5116578;28;20468;-72
2021/07/26 03:44:33;;;;;;;26.63;21.67;;;18.00;99.90;;;;;;5116885;28;20551;-73
2021/07/26 03:46:59;;;;;;;28.85;23.02;;;18.00;99.90;;;;;;5116541;28;20077;-72
2021/07/26 03:49:25;;;;;;;28.23;23.67;;;18.00;99.90;;;;;;5115985;27;20076;-72
2021/07/26 03:51:51;;;;;;;33.28;25.35;;;18.10;99.90;;;;;;5116183;28;20490;-72
2021/07/26 03:54:16;;;;;;;31.65;25.55;;;18.10;99.90;;;;;;5116366;28;20061;-73
2021/07/26 03:56:43;;;;;;;33.88;26.02;;;18.10;99.90;;;;;;5116084;28;20046;-72
2021/07/26 03:59:08;;;;;;;30.30;25.00;;;18.10;99.90;;;;;;5115933;28;20110;-73
2021/07/26 04:01:34;;;;;;;32.10;26.10;;;18.10;99.90;;;;;;5115999;28;20089;-72
2021/07/26 04:04:00;;;;;;;36.60;28.83;;;18.10;99.90;;;;;;5115654;28;20047;-73
2021/07/26 04:06:26;;;;;;;31.58;25.35;;;18.10;99.90;;;;;;5116328;28;20035;-73
2021/07/26 04:08:53;;;;;;;28.98;25.55;;;18.10;99.90;;;;;;5115426;27;20032;-72
2021/07/26 04:11:24;;;;;;;31.80;26.73;;;18.10;99.90;;;;;;5115538;28;20032;-72
2021/07/26 04:14:00;;;;;;;34.10;26.73;;;18.20;99.90;;;;;;5115639;28;20036;-72
2021/07/26 04:16:26;;;;;;;37.42;29.35;;;18.10;99.90;;;;;;5115631;28;20095;-73
2021/07/26 04:18:53;;;;;;;33.90;26.58;;;18.20;99.90;;;;;;5115222;28;20110;-73
2021/07/26 04:21:19;;;;;;;37.13;29.13;;;18.10;99.90;;;;;;5114598;28;20035;-73
2021/07/26 04:23:45;;;;;;;41.60;30.67;;;18.10;99.90;;;;;;5115598;28;20046;-72
2021/07/26 04:26:11;;;;;;;38.00;30.83;;;18.20;99.90;;;;;;5115613;28;20395;-73
2021/07/26 04:28:37;;;;;;;37.35;29.20;;;18.20;99.90;;;;;;5115530;28;20032;-72
2021/07/26 04:31:03;;;;;;;40.13;31.48;;;18.20;99.90;;;;;;5115520;27;20040;-73
2021/07/26 04:33:32;;;;;;;42.13;32.50;;;18.20;99.90;;;;;;5115508;28;20040;-73
2021/07/26 04:36:01;;;;;;;37.40;30.00;;;18.20;99.90;;;;;;5115243;28;20038;-73
2021/07/26 04:38:28;;;;;;;38.08;28.48;;;18.20;99.90;;;;;;5115588;28;20475;-73
2021/07/26 04:40:54;;;;;;;40.40;31.13;;;18.20;99.90;;;;;;5114249;28;20028;-73
2021/07/26 04:43:20;;;;;;;42.10;33.67;;;18.30;99.90;;;;;;5114861;28;20432;-72
2021/07/26 04:45:45;;;;;;;40.92;32.50;;;18.30;99.90;;;;;;5115522;28;20498;-72
2021/07/26 04:48:12;;;;;;;45.10;34.10;;;18.30;99.90;;;;;;5115190;28;20039;-71
2021/07/26 04:50:38;;;;;;;38.92;31.30;;;18.40;99.90;;;;;;5114549;28;20107;-71
2021/07/26 04:53:04;;;;;;;39.75;33.08;;;18.50;99.90;;;;;;5115041;28;20096;-71
2021/07/26 04:55:30;;;;;;;44.67;35.50;;;18.50;99.90;;;;;;5114842;28;20479;-71
2021/07/26 04:57:59;;;;;;;43.97;33.50;;;18.60;99.90;;;;;;5115242;28;20046;-71
2021/07/26 05:00:27;;;;;;;43.40;33.17;;;18.70;99.90;;;;;;5114245;28;20039;-71
2021/07/26 05:02:53;;;;;;;39.35;32.95;;;18.80;99.90;;;;;;5114517;28;20040;-71
2021/07/26 05:05:19;;;;;;;37.13;30.88;;;18.80;99.90;;;;;;5114588;28;20071;-71
2021/07/26 05:07:45;;;;;;;39.72;32.95;;;18.90;99.90;;;;;;5115098;28;20062;-71
2021/07/26 05:10:11;;;;;;;36.30;28.63;;;19.00;99.90;;;;;;5113957;28;20089;-71
2021/07/26 05:12:37;;;;;;;34.20;27.65;;;19.20;99.90;;;;;;5114490;28;20127;-71
2021/07/26 05:15:04;;;;;;;32.47;26.27;;;19.30;99.90;;;;;;5114588;28;20035;-71
2021/07/26 05:17:30;;;;;;;29.83;23.98;;;19.40;99.90;;;;;;5114676;28;20039;-72
2021/07/26 05:19:56;;;;;;;31.90;26.83;;;19.60;99.90;;;;;;5113927;28;20077;-72
2021/07/26 05:22:22;;;;;;;34.08;25.77;;;19.70;99.90;;;;;;5114823;28;20352;-71
2021/07/26 05:24:48;;;;;;;27.52;23.90;;;19.90;99.90;;;;;;5114463;28;20031;-72
2021/07/26 05:27:14;;;;;;;28.55;23.27;;;20.00;99.90;;;;;;5114808;28;20539;-71
2021/07/26 05:29:40;;;;;;;24.02;21.33;;;20.30;99.90;;;;;;5113990;28;20147;-72
2021/07/26 05:32:07;;;;;;;25.55;21.15;;;20.40;99.90;;;;;;5114060;28;20040;-72
2021/07/26 05:34:33;;;;;;;22.15;19.75;;;20.50;99.90;;;;;;5114594;28;20036;-72
2021/07/26 05:36:59;;;;;;;24.50;20.95;;;20.60;99.90;;;;;;5114005;28;20031;-72
2021/07/26 05:39:24;;;;;;;23.48;20.58;;;20.60;99.90;;;;;;5113988;28;20048;-72
2021/07/26 05:41:54;;;;;;;23.88;20.77;;;20.60;99.90;;;;;;5113926;28;20051;-72
2021/07/26 05:44:20;;;;;;;24.08;18.30;;;20.70;99.90;;;;;;5114641;28;20062;-72
2021/07/26 05:46:46;;;;;;;20.13;17.27;;;20.70;99.90;;;;;;5114097;28;20487;-72
2021/07/26 05:49:12;;;;;;;19.27;14.43;;;20.90;99.90;;;;;;5114051;28;20039;-72
2021/07/26 05:51:37;;;;;;;17.33;15.50;;;21.00;99.90;;;;;;5114104;28;20093;-72
2021/07/26 05:54:04;;;;;;;15.88;14.27;;;21.00;99.90;;;;;;5114515;28;20572;-72
2021/07/26 05:56:35;;;;;;;14.60;12.38;;;21.00;99.90;;;;;;5114303;28;20086;-72
2021/07/26 05:59:02;;;;;;;15.30;13.77;;;21.10;99.90;;;;;;5113657;28;20043;-72
2021/07/26 06:01:47;;;;;;;12.93;11.73;;;21.20;99.90;;;;;;5112956;28;20479;-72
2021/07/26 06:04:13;;;;;;;15.00;12.68;;;21.30;99.90;;;;;;5113855;28;20046;-72
2021/07/26 06:06:50;;;;;;;15.75;11.77;;;21.40;99.90;;;;;;5114615;28;20066;-72
2021/07/26 06:09:16;;;;;;;13.60;12.20;;;21.60;99.90;;;;;;5113518;28;20441;-72
2021/07/26 06:11:43;;;;;;;13.30;11.90;;;21.80;99.90;;;;;;5114103;28;20134;-72
2021/07/26 06:14:10;;;;;;;13.45;12.15;;;21.90;99.90;;;;;;5113555;28;20031;-72
2021/07/26 06:16:41;;;;;;;17.73;13.68;;;22.00;99.90;;;;;;5113964;28;20035;-72
2021/07/26 06:19:10;;;;;;;14.00;12.50;;;22.10;99.90;;;;;;5113778;28;20035;-72
2021/07/26 06:21:49;;;;;;;13.40;12.05;;;22.20;99.90;;;;;;5113456;28;20040;-72
2021/07/26 06:24:16;;;;;;;13.48;11.27;;;22.30;99.90;;;;;;5113701;28;20039;-72
2021/07/26 06:26:42;;;;;;;13.27;11.88;;;22.70;99.90;;;;;;5113611;28;20069;-72
2021/07/26 06:29:08;;;;;;;12.40;10.65;;;23.00;99.90;;;;;;5113547;28;20502;-72
2021/07/26 06:31:34;;;;;;;12.02;10.60;;;23.10;99.90;;;;;;5113783;28;20039;-72
2021/07/26 06:34:01;;;;;;;12.13;10.88;;;23.40;99.90;;;;;;5113460;28;20538;-72
2021/07/26 06:36:28;;;;;;;12.13;10.90;;;23.50;99.90;;;;;;5114118;28;20054;-72
2021/07/26 06:38:54;;;;;;;9.38;8.48;;;23.70;99.90;;;;;;5113140;28;20115;-72
2021/07/26 06:41:20;;;;;;;10.68;9.30;;;23.80;99.90;;;;;;5113564;28;20039;-72
2021/07/26 06:43:46;;;;;;;10.77;9.13;;;24.20;99.90;;;;;;5113505;28;20040;-72
2021/07/26 06:46:12;;;;;;;8.98;7.88;;;24.20;99.90;;;;;;5114002;28;20471;-73
2021/07/26 06:48:38;;;;;;;8.80;7.90;;;24.50;99.90;;;;;;5113384;28;20552;-72
2021/07/26 06:51:04;;;;;;;8.73;7.75;;;24.60;99.90;;;;;;5113342;28;20035;-73
2021/07/26 06:53:32;;;;;;;10.38;7.82;;;24.60;99.90;;;;;;5113329;28;20043;-73
2021/07/26 06:56:03;;;;;;;11.13;8.63;;;24.60;99.90;;;;;;5113868;28;20040;-72
2021/07/26 06:58:28;;;;;;;10.68;8.98;;;24.70;99.90;;;;;;5113041;28;20035;-73
2021/07/26 07:00:54;;;;;;;8.57;7.65;;;24.60;99.90;;;;;;5113266;28;20047;-73
2021/07/26 07:03:20;;;;;;;7.95;7.13;;;24.70;99.90;;;;;;5113214;28;20043;-73
2021/07/26 07:05:46;;;;;;;7.97;7.10;;;25.00;99.90;;;;;;5115767;28;20110;-73
2021/07/26 07:08:11;;;;;;;9.50;7.75;;;25.30;99.90;;;;;;5117085;28;20058;-73
2021/07/26 07:10:37;;;;;;;9.70;7.82;;;25.20;99.90;;;;;;5116571;28;20067;-73
2021/07/26 07:13:03;;;;;;;12.25;7.63;;;25.30;99.90;;;;;;5116893;28;20598;-73
2021/07/26 07:15:30;;;;;;;7.35;6.05;;;25.30;99.90;;;;;;5115682;28;20403;-72
2021/07/26 07:17:58;;;;;;;8.48;7.57;;;25.60;99.90;;;;;;5116622;27;20035;-72
2021/07/26 07:20:23;;;;;;;7.35;6.60;;;25.80;99.90;;;;;;5116558;28;20031;-72
2021/07/26 07:22:49;;;;;;;8.18;6.60;;;25.70;99.90;;;;;;5116526;28;20074;-72
2021/07/26 07:25:14;;;;;;;7.80;6.05;;;25.80;99.90;;;;;;5116744;28;20067;-72
2021/07/26 07:27:40;;;;;;;7.70;5.47;;;26.00;99.90;;;;;;5116198;28;20067;-73
2021/07/26 07:30:06;;;;;;;7.63;5.55;;;26.10;99.90;;;;;;5116370;28;20036;-73
2021/07/26 07:32:35;;;;;;;10.48;6.05;;;26.30;99.90;;;;;;5116309;28;20039;-72
2021/07/26 07:35:00;;;;;;;8.00;5.00;;;26.50;99.90;;;;;;5116807;28;20380;-70
2021/07/26 07:37:26;;;;;;;7.72;4.32;;;26.80;99.90;;;;;;5116308;28;20043;-72
2021/07/26 07:39:52;;;;;;;7.65;4.32;;;26.90;99.90;;;;;;5116268;28;20475;-73
2021/07/26 07:42:17;;;;;;;6.88;4.18;;;26.90;99.80;;;;;;5116714;28;20177;-73
2021/07/26 07:44:43;;;;;;;6.75;4.43;;;27.00;99.50;;;;;;5116304;28;20040;-70
2021/07/26 07:47:11;;;;;;;5.63;4.50;;;27.30;99.00;;;;;;5116841;28;20028;-70
2021/07/26 07:49:37;;;;;;;8.77;4.93;;;27.50;98.80;;;;;;5116502;28;20089;-70
2021/07/26 07:52:03;;;;;;;5.95;4.05;;;27.50;99.10;;;;;;5116604;28;20039;-70
2021/07/26 07:54:28;;;;;;;5.43;3.63;;;27.80;99.20;;;;;;5116020;28;20122;-70
2021/07/26 07:56:54;;;;;;;5.68;4.25;;;27.90;98.30;;;;;;5116538;28;20404;-71
2021/07/26 07:59:20;;;;;;;7.50;5.18;;;27.70;98.20;;;;;;5115707;28;20035;-70
2021/07/26 08:01:46;;;;;;;5.05;4.07;;;27.60;97.80;;;;;;5115994;28;20035;-70
2021/07/26 08:04:12;;;;;;;5.20;4.32;;;27.80;98.30;;;;;;5116403;28;20058;-72
2021/07/26 08:06:40;;;;;;;5.80;4.38;;;27.80;98.50;;;;;;5116038;28;20042;-72
2021/07/26 08:09:07;;;;;;;6.70;4.40;;;27.40;98.40;;;;;;5115537;28;20059;-72
2021/07/26 08:11:33;;;;;;;6.82;4.93;;;27.40;97.90;;;;;;5115835;28;20044;-72
2021/07/26 08:13:58;;;;;;;6.82;4.70;;;27.70;97.70;;;;;;5115467;28;20088;-72
2021/07/26 08:16:24;;;;;;;7.45;5.10;;;27.80;98.50;;;;;;5114411;28;20042;-72
2021/07/26 08:18:50;;;;;;;5.30;4.32;;;27.80;98.50;;;;;;5115936;28;20040;-72
2021/07/26 08:21:16;;;;;;;5.80;3.88;;;27.90;97.30;;;;;;5115521;28;20039;-72
2021/07/26 08:23:41;;;;;;;6.85;4.15;;;28.20;96.80;;;;;;5115503;28;20376;-72
2021/07/26 08:26:07;;;;;;;6.47;4.10;;;27.90;95.80;;;;;;5115795;28;20063;-72
2021/07/26 08:28:33;;;;;;;5.10;3.55;;;28.30;95.70;;;;;;5115511;28;20069;-72
2021/07/26 08:31:01;;;;;;;8.88;4.00;;;28.40;94.60;;;;;;5115683;28;20047;-72
2021/07/26 08:33:27;;;;;;;5.90;4.13;;;28.60;95.10;;;;;;5115327;28;20047;-73
2021/07/26 08:35:52;;;;;;;4.57;3.63;;;28.30;93.60;;;;;;5114424;28;20035;-72
2021/07/26 08:38:18;;;;;;;5.30;3.38;;;28.10;93.60;;;;;;5115501;28;20115;-72
2021/07/26 08:40:45;;;;;;;3.80;3.10;;;28.00;93.80;;;;;;5115190;28;20471;-72
2021/07/26 08:43:11;;;;;;;4.50;3.72;;;27.80;94.30;;;;;;5115615;28;20071;-72
2021/07/26 08:45:37;;;;;;;5.00;3.10;;;27.80;94.40;;;;;;5115126;28;20035;-72
2021/07/26 08:48:08;;;;;;;4.95;3.38;;;27.80;94.50;;;;;;5115747;28;20076;-72
2021/07/26 08:50:35;;;;;;;2.75;2.15;;;27.80;93.60;;;;;;5115241;28;20039;-72
2021/07/26 08:53:03;;;;;;;5.13;3.53;;;28.00;93.20;;;;;;5115118;28;20096;-72
2021/07/26 08:55:29;;;;;;;3.83;3.17;;;28.10;93.40;;;;;;5115564;28;20118;-72
2021/07/26 08:57:56;;;;;;;3.63;3.00;;;28.30;93.10;;;;;;5113821;28;20486;-72
2021/07/26 09:00:23;;;;;;;6.65;3.22;;;28.40;94.20;;;;;;5114766;28;20100;-72
2021/07/26 09:02:50;;;;;;;5.07;2.90;;;28.50;93.20;;;;;;5114714;28;20050;-72
2021/07/26 09:05:16;;;;;;;6.15;3.20;;;28.80;94.20;;;;;;5114822;28;20043;-72
2021/07/26 09:07:44;;;;;;;5.53;3.45;;;28.90;93.00;;;;;;5114932;28;20031;-72
2021/07/26 09:10:19;;;;;;;5.75;2.90;;;28.80;93.20;;;;;;5114330;28;20039;-72
2021/07/26 09:12:47;;;;;;;5.90;2.80;;;29.00;91.80;;;;;;5114401;28;20039;-72
2021/07/26 09:15:16;;;;;;;5.93;2.72;;;29.00;92.80;;;;;;5114675;28;20059;-72
2021/07/26 09:17:45;;;;;;;4.68;3.13;;;29.20;92.80;;;;;;5113659;28;20039;-72
2021/07/26 09:20:12;;;;;;;3.85;2.50;;;29.00;88.80;;;;;;5114048;28;20039;-72
2021/07/26 09:22:41;;;;;;;3.58;2.53;;;28.90;90.70;;;;;;5114234;28;20044;-72
2021/07/26 09:25:12;;;;;;;4.15;2.83;;;29.00;90.90;;;;;;5114333;28;20542;-72
2021/07/26 09:27:38;;;;;;;5.28;3.20;;;28.60;91.70;;;;;;5114560;28;20044;-72
2021/07/26 09:30:14;;;;;;;5.57;3.33;;;28.80;92.90;;;;;;5113993;28;20436;-72
2021/07/26 09:32:41;;;;;;;4.05;2.97;;;28.80;92.00;;;;;;5113754;28;20100;-72
2021/07/26 09:35:08;;;;;;;3.97;2.60;;;28.80;91.60;;;;;;5113081;28;20032;-72
2021/07/26 09:37:35;;;;;;;5.38;3.15;;;29.00;94.10;;;;;;5114651;28;20035;-72
2021/07/26 09:40:20;;;;;;;6.07;3.38;;;29.10;94.60;;;;;;5113651;28;20043;-72
2021/07/26 09:42:46;;;;;;;2.88;2.58;;;29.10;93.40;;;;;;5113399;28;20071;-72
2021/07/26 09:45:40;;;;;;;5.18;2.95;;;29.00;94.30;;;;;;5112710;28;20067;-73
2021/07/26 09:48:10;;;;;;;4.45;2.90;;;28.50;94.30;;;;;;5112295;28;20043;-73
2021/07/26 09:50:46;;;;;;;5.35;3.30;;;28.50;96.00;;;;;;5113862;28;20042;-73
2021/07/26 09:53:14;;;;;;;3.83;2.97;;;28.20;96.30;;;;;;5113844;28;20067;-72
2021/07/26 09:55:42;;;;;;;4.22;3.00;;;27.90;96.00;;;;;;5114424;28;20039;-72
2021/07/26 09:58:12;;;;;;;5.47;2.83;;;27.60;96.50;;;;;;5113959;28;20032;-72
2021/07/26 10:00:39;;;;;;;2.83;2.50;;;27.40;96.30;;;;;;5113484;28;20080;-73
2021/07/26 10:03:08;;;;;;;3.95;2.55;;;26.90;97.60;;;;;;5113105;28;20046;-72
2021/07/26 10:05:38;;;;;;;5.30;2.83;;;26.80;97.70;;;;;;5113981;28;20036;-72
2021/07/26 10:08:05;;;;;;;5.03;3.28;;;26.60;97.80;;;;;;5114021;28;20480;-72
2021/07/26 10:10:37;;;;;;;4.03;2.72;;;26.40;99.70;;;;;;5113212;28;20071;-72
2021/07/26 10:13:03;;;;;;;3.50;2.55;;;26.30;99.80;;;;;;5113479;28;20039;-72
2021/07/26 10:15:31;;;;;;;5.38;3.00;;;26.20;98.70;;;;;;5114068;28;20040;-72
2021/07/26 10:17:58;;;;;;;4.95;2.95;;;26.40;98.90;;;;;;5113555;28;20055;-72
2021/07/26 10:20:26;;;;;;;6.35;2.50;;;26.80;99.50;;;;;;5113189;28;20039;-72
2021/07/26 10:23:19;;;;;;;3.90;2.90;;;27.10;97.00;;;;;;5114178;28;20039;-72
2021/07/26 10:25:58;;;;;;;5.18;2.70;;;27.00;94.90;;;;;;5095111;28;20530;-71
2021/07/26 10:28:37;;;;;;;4.78;2.72;;;27.10;94.40;;;;;;5114116;28;20536;-72
2021/07/26 10:31:32;;;;;;;3.28;2.70;;;27.20;95.10;;;;;;5113478;28;20035;-72
2021/07/26 10:34:08;;;;;;;4.22;2.60;;;27.20;95.10;;;;;;5113987;28;20470;-72
2021/07/26 10:36:40;;;;;;;5.72;2.55;;;27.20;96.00;;;;;;5112860;28;20039;-72
2021/07/26 10:39:06;;;;;;;4.43;2.63;;;27.10;94.80;;;;;;5112987;28;20039;-72
2021/07/26 10:41:44;;;;;;;6.65;2.90;;;27.10;94.70;;;;;;5117238;28;20067;-72
2021/07/26 10:44:16;;;;;;;3.38;2.22;;;27.20;93.90;;;;;;5117946;28;20115;-72
2021/07/26 10:46:51;;;;;;;4.07;2.28;;;27.20;93.60;;;;;;5117521;28;20119;-72
2021/07/26 10:49:17;;;;;;;4.45;2.60;;;27.50;94.70;;;;;;5117112;28;20035;-73
2021/07/26 10:51:45;;;;;;;4.47;2.47;;;27.40;93.40;;;;;;5116804;28;20446;-72
2021/07/26 10:54:38;;;;;;;3.42;2.47;;;27.40;93.90;;;;;;5117291;28;20066;-72
2021/07/26 10:57:13;;;;;;;3.75;2.45;;;27.40;93.40;;;;;;5115945;28;20498;-71
2021/07/26 11:00:11;;;;;;;4.15;2.80;;;27.40;93.60;;;;;;5116736;28;20042;-71
2021/07/26 11:02:44;;;;;;;3.30;2.58;;;27.30;93.60;;;;;;5117042;28;20380;-71
2021/07/26 11:05:25;;;;;;;5.13;2.67;;;27.00;93.50;;;;;;5117520;28;20046;-71
2021/07/26 11:08:18;;;;;;;4.13;2.72;;;26.80;92.90;;;;;;5117344;28;20035;-71
2021/07/26 11:10:45;;;;;;;4.32;2.85;;;26.80;92.90;;;;;;5116746;28;20059;-72
2021/07/26 11:13:11;;;;;;;3.78;2.53;;;26.80;94.30;;;;;;5116938;28;20054;-71
2021/07/26 11:15:51;;;;;;;4.40;2.60;;;26.60;94.40;;;;;;5117015;28;20058;-72
2021/07/26 11:18:28;;;;;;;4.18;2.40;;;26.70;94.40;;;;;;5115695;28;20042;-72
2021/07/26 11:21:01;;;;;;;4.28;2.35;;;26.90;94.50;;;;;;5117024;28;20035;-71
2021/07/26 11:23:39;;;;;;;3.22;2.28;;;26.90;92.30;;;;;;5115314;28;20480;-72
2021/07/26 11:26:22;;;;;;;3.58;2.50;;;27.10;92.80;;;;;;5116662;28;20046;-71
2021/07/26 11:28:50;;;;;;;3.13;2.63;;;27.20;93.40;;;;;;5116701;28;20472;-70
2021/07/26 11:31:28;;;;;;;4.00;2.90;;;26.90;93.00;;;;;;5117077;28;20043;-71
2021/07/26 11:34:10;;;;;;;3.63;2.85;;;26.90;95.90;;;;;;5116549;28;20036;-71
2021/07/26 11:36:36;;;;;;;6.32;2.58;;;27.00;94.90;;;;;;5116750;28;20445;-71
2021/07/26 11:39:07;;;;;;;5.35;2.75;;;26.80;95.20;;;;;;5115820;28;20043;-72
2021/07/26 11:41:34;;;;;;;2.85;2.00;;;26.80;95.10;;;;;;5116221;28;20115;-71
2021/07/26 11:44:00;;;;;;;5.53;2.30;;;26.90;94.80;;;;;;5116657;27;20044;-71
2021/07/26 11:46:30;;;;;;;4.55;2.30;;;27.00;94.10;;;;;;5116574;28;20468;-72
2021/07/26 11:49:00;;;;;;;3.65;2.17;;;27.10;94.20;;;;;;5097406;28;20512;-71
2021/07/26 11:51:34;;;;;;;4.75;2.20;;;27.10;92.90;;;;;;5116240;28;20064;-71
2021/07/26 11:54:07;;;;;;;2.92;2.00;;;27.00;92.30;;;;;;5115917;28;20028;-71
2021/07/26 11:56:35;;;;;;;2.38;1.75;;;27.10;94.30;;;;;;5114795;28;20031;-71
2021/07/26 11:59:12;;;;;;;3.55;1.90;;;27.00;92.80;;;;;;5115879;28;20050;-71
2021/07/26 12:01:39;;;;;;;2.95;2.10;;;27.10;93.10;;;;;;5114953;28;20036;-71
2021/07/26 12:04:05;;;;;;;3.28;2.72;;;27.10;93.70;;;;;;5116285;28;20085;-72
2021/07/26 12:06:51;;;;;;;3.83;2.38;;;26.90;95.00;;;;;;5116324;28;20031;-71
2021/07/26 12:09:17;;;;;;;3.35;1.95;;;26.70;93.20;;;;;;5115418;28;20036;-70
2021/07/26 12:11:43;;;;;;;3.85;2.05;;;26.80;93.40;;;;;;5115779;28;20040;-70
2021/07/26 12:14:31;;;;;;;5.03;2.03;;;26.80;92.60;;;;;;5115872;28;20509;-71
2021/07/26 12:17:09;;;;;;;3.13;1.90;;;26.90;93.20;;;;;;5115511;28;20047;-70
2021/07/26 12:19:37;;;;;;;3.38;2.03;;;26.80;92.60;;;;;;5115491;28;20097;-70
2021/07/26 12:22:41;;;;;;;3.67;1.95;;;26.80;92.70;;;;;;5115302;28;20043;-70
2021/07/26 12:25:22;;;;;;;3.13;2.08;;;26.80;92.90;;;;;;5107838;28;20417;-70
2021/07/26 12:28:02;;;;;;;2.35;1.67;;;26.70;94.10;;;;;;5115981;28;20378;-70
2021/07/26 12:30:53;;;;;;;2.75;1.85;;;26.70;93.60;;;;;;5112280;28;20063;-70
2021/07/26 12:33:32;;;;;;;2.33;1.45;;;26.50;90.80;;;;;;5093773;28;20086;-70
2021/07/26 12:36:11;;;;;;;2.83;1.60;;;26.40;91.70;;;;;;5095048;28;20105;-70
2021/07/26 12:38:38;;;;;;;2.38;1.65;;;26.50;92.70;;;;;;5094364;28;20067;-70
2021/07/26 12:41:07;;;;;;;2.50;1.70;;;26.60;92.40;;;;;;5094686;28;20032;-70
2021/07/26 12:43:33;;;;;;;4.50;1.55;;;26.60;95.90;;;;;;5094547;28;20468;-70